sensor_id;sensor_type;location;lat;lon;timestamp;pressure;altitude;pressure_sealevel;temperature;humidity
80511;BME280;69840;53.040;8.600;2023-08-06T00:02:37;100778.59;;;15.30;91.00
80511;BME280;69840;53.040;8.600;2023-08-06T00:06:49;100783.50;;;15.27;90.94
80511;BME280;69840;53.040;8.600;2023-08-06T00:11:02;100779.81;;;15.28;91.07
80511;BME280;69840;53.040;8.600;2023-08-06T00:15:14;100776.97;;;15.29;91.37
80511;BME280;69840;53.040;8.600;2023-08-06T00:19:27;100773.72;;;15.34;91.12
80511;BME280;69840;53.040;8.600;2023-08-06T00:23:41;100771.25;;;15.32;90.46
80511;BME280;69840;53.040;8.600;2023-08-06T00:27:54;100770.00;;;15.28;90.88
80511;BME280;69840;53.040;8.600;2023-08-06T00:32:06;100768.34;;;15.27;90.82
80511;BME280;69840;53.040;8.600;2023-08-06T00:36:19;100770.53;;;15.17;90.63
80511;BME280;69840;53.040;8.600;2023-08-06T00:40:31;100765.03;;;15.19;90.88
80511;BME280;69840;53.040;8.600;2023-08-06T00:44:44;100770.78;;;15.22;90.49
80511;BME280;69840;53.040;8.600;2023-08-06T00:48:56;100763.19;;;15.19;90.72
80511;BME280;69840;53.040;8.600;2023-08-06T00:53:10;100749.03;;;15.19;90.96
80511;BME280;69840;53.040;8.600;2023-08-06T00:57:24;100752.34;;;15.21;90.96
80511;BME280;69840;53.040;8.600;2023-08-06T01:01:37;100747.41;;;15.18;90.57
80511;BME280;69840;53.040;8.600;2023-08-06T01:05:50;100750.31;;;15.23;90.79
80511;BME280;69840;53.040;8.600;2023-08-06T01:14:41;100734.91;;;15.18;90.29
80511;BME280;69840;53.040;8.600;2023-08-06T01:18:58;100735.97;;;15.24;90.83
80511;BME280;69840;53.040;8.600;2023-08-06T01:23:10;100732.31;;;15.25;90.69
80511;BME280;69840;53.040;8.600;2023-08-06T01:31:41;100725.72;;;15.21;90.70
80511;BME280;69840;53.040;8.600;2023-08-06T01:35:55;100713.59;;;15.18;90.85
80511;BME280;69840;53.040;8.600;2023-08-06T01:40:13;100715.84;;;15.15;90.79
80511;BME280;69840;53.040;8.600;2023-08-06T01:44:25;100706.00;;;15.15;90.71
80511;BME280;69840;53.040;8.600;2023-08-06T01:48:38;100712.66;;;14.98;90.59
80511;BME280;69840;53.040;8.600;2023-08-06T01:52:51;100706.56;;;15.04;90.99
80511;BME280;69840;53.040;8.600;2023-08-06T01:57:04;100700.84;;;15.07;90.71
80511;BME280;69840;53.040;8.600;2023-08-06T02:01:17;100695.72;;;15.05;90.99
80511;BME280;69840;53.040;8.600;2023-08-06T02:05:29;100699.63;;;15.09;91.23
80511;BME280;69840;53.040;8.600;2023-08-06T02:09:43;100700.84;;;15.07;90.83
80511;BME280;69840;53.040;8.600;2023-08-06T02:13:56;100702.69;;;15.06;91.46
80511;BME280;69840;53.040;8.600;2023-08-06T02:18:08;100694.09;;;15.11;91.58
80511;BME280;69840;53.040;8.600;2023-08-06T02:22:21;100689.00;;;15.09;91.18
80511;BME280;69840;53.040;8.600;2023-08-06T02:26:33;100689.19;;;15.08;91.29
80511;BME280;69840;53.040;8.600;2023-08-06T02:30:50;100690.19;;;15.07;91.30
80511;BME280;69840;53.040;8.600;2023-08-06T02:35:03;100684.69;;;15.08;91.05
80511;BME280;69840;53.040;8.600;2023-08-06T02:39:16;100678.53;;;15.08;91.17
80511;BME280;69840;53.040;8.600;2023-08-06T02:43:28;100677.41;;;14.96;90.46
80511;BME280;69840;53.040;8.600;2023-08-06T02:47:42;100672.97;;;15.03;91.05
80511;BME280;69840;53.040;8.600;2023-08-06T02:51:54;100686.28;;;15.03;91.16
80511;BME280;69840;53.040;8.600;2023-08-06T02:56:08;100673.16;;;15.01;91.46
80511;BME280;69840;53.040;8.600;2023-08-06T03:00:32;100668.66;;;15.02;91.31
80511;BME280;69840;53.040;8.600;2023-08-06T03:04:47;100654.53;;;15.01;91.05
80511;BME280;69840;53.040;8.600;2023-08-06T03:09:01;100642.59;;;14.91;90.89
80511;BME280;69840;53.040;8.600;2023-08-06T03:13:13;100637.72;;;14.94;91.27
80511;BME280;69840;53.040;8.600;2023-08-06T03:17:26;100637.09;;;14.99;91.24
80511;BME280;69840;53.040;8.600;2023-08-06T03:21:39;100635.50;;;15.04;91.39
80511;BME280;69840;53.040;8.600;2023-08-06T03:25:52;100639.00;;;15.05;91.30
80511;BME280;69840;53.040;8.600;2023-08-06T03:30:06;100632.22;;;15.02;91.28
80511;BME280;69840;53.040;8.600;2023-08-06T03:34:19;100622.00;;;15.06;91.19
80511;BME280;69840;53.040;8.600;2023-08-06T03:38:33;100620.78;;;15.08;91.40
80511;BME280;69840;53.040;8.600;2023-08-06T03:42:50;100624.28;;;15.09;91.53
80511;BME280;69840;53.040;8.600;2023-08-06T03:47:03;100615.28;;;15.10;91.31
80511;BME280;69840;53.040;8.600;2023-08-06T03:51:16;100601.16;;;15.09;91.48
80511;BME280;69840;53.040;8.600;2023-08-06T03:55:31;100585.50;;;15.00;91.37
80511;BME280;69840;53.040;8.600;2023-08-06T03:59:43;100589.31;;;14.78;91.25
80511;BME280;69840;53.040;8.600;2023-08-06T04:04:01;100602.44;;;14.86;91.72
80511;BME280;69840;53.040;8.600;2023-08-06T04:08:14;100599.22;;;14.97;91.99
80511;BME280;69840;53.040;8.600;2023-08-06T04:12:27;100600.47;;;15.01;91.66
80511;BME280;69840;53.040;8.600;2023-08-06T04:16:41;100603.53;;;14.98;91.71
80511;BME280;69840;53.040;8.600;2023-08-06T04:20:53;100610.16;;;15.08;91.90
80511;BME280;69840;53.040;8.600;2023-08-06T04:25:06;100602.56;;;15.12;91.82
80511;BME280;69840;53.040;8.600;2023-08-06T04:29:19;100601.16;;;15.09;91.48
80511;BME280;69840;53.040;8.600;2023-08-06T04:33:32;100606.69;;;15.15;91.12
80511;BME280;69840;53.040;8.600;2023-08-06T04:37:49;100603.63;;;15.18;91.18
80511;BME280;69840;53.040;8.600;2023-08-06T04:42:02;100605.66;;;15.16;91.23
80511;BME280;69840;53.040;8.600;2023-08-06T04:46:15;100603.81;;;15.16;91.05
80511;BME280;69840;53.040;8.600;2023-08-06T04:50:27;100612.66;;;15.23;91.24
80511;BME280;69840;53.040;8.600;2023-08-06T04:54:40;100618.63;;;15.25;91.08
80511;BME280;69840;53.040;8.600;2023-08-06T04:58:52;100606.72;;;15.21;90.88
80511;BME280;69840;53.040;8.600;2023-08-06T05:03:05;100599.75;;;15.20;90.57
80511;BME280;69840;53.040;8.600;2023-08-06T05:07:18;100603.88;;;15.29;90.88
80511;BME280;69840;53.040;8.600;2023-08-06T05:11:30;100603.28;;;15.34;90.98
80511;BME280;69840;53.040;8.600;2023-08-06T05:15:43;100600.63;;;15.34;90.28
80511;BME280;69840;53.040;8.600;2023-08-06T05:19:56;100606.78;;;15.34;90.37
80511;BME280;69840;53.040;8.600;2023-08-06T05:24:08;100603.88;;;15.29;89.85
80511;BME280;69840;53.040;8.600;2023-08-06T05:28:21;100605.72;;;15.29;90.08
80511;BME280;69840;53.040;8.600;2023-08-06T05:32:33;100614.38;;;15.37;90.25
80511;BME280;69840;53.040;8.600;2023-08-06T05:36:46;100613.97;;;15.47;90.04
80511;BME280;69840;53.040;8.600;2023-08-06T05:40:58;100612.84;;;15.56;90.01
80511;BME280;69840;53.040;8.600;2023-08-06T05:45:11;100606.47;;;15.64;89.50
80511;BME280;69840;53.040;8.600;2023-08-06T05:49:23;100603.66;;;15.72;89.74
80511;BME280;69840;53.040;8.600;2023-08-06T05:53:36;100607.13;;;15.79;88.47
80511;BME280;69840;53.040;8.600;2023-08-06T05:57:48;100608.97;;;15.78;88.32
80511;BME280;69840;53.040;8.600;2023-08-06T06:02:01;100615.34;;;15.91;88.99
80511;BME280;69840;53.040;8.600;2023-08-06T06:06:13;100619.69;;;15.98;88.49
80511;BME280;69840;53.040;8.600;2023-08-06T06:10:27;100622.38;;;16.18;88.18
80511;BME280;69840;53.040;8.600;2023-08-06T06:14:40;100613.34;;;16.32;87.19
80511;BME280;69840;53.040;8.600;2023-08-06T06:18:53;100615.00;;;16.46;87.29
80511;BME280;69840;53.040;8.600;2023-08-06T06:23:05;100625.69;;;16.66;87.40
80511;BME280;69840;53.040;8.600;2023-08-06T06:27:18;100624.22;;;16.77;85.71
80511;BME280;69840;53.040;8.600;2023-08-06T06:31:30;100625.81;;;16.98;85.84
80511;BME280;69840;53.040;8.600;2023-08-06T06:35:43;100621.22;;;17.18;84.70
80511;BME280;69840;53.040;8.600;2023-08-06T06:39:56;100618.53;;;17.25;84.05
80511;BME280;69840;53.040;8.600;2023-08-06T06:44:08;100614.97;;;17.44;83.50
80511;BME280;69840;53.040;8.600;2023-08-06T06:48:21;100619.19;;;17.65;83.37
80511;BME280;69840;53.040;8.600;2023-08-06T06:52:34;100615.69;;;17.71;82.24
80511;BME280;69840;53.040;8.600;2023-08-06T06:56:47;100606.34;;;17.80;82.78
80511;BME280;69840;53.040;8.600;2023-08-06T07:00:59;100610.44;;;17.89;82.11
80511;BME280;69840;53.040;8.600;2023-08-06T07:05:12;100619.59;;;17.68;80.35
80511;BME280;69840;53.040;8.600;2023-08-06T07:09:25;100614.09;;;17.95;81.13
80511;BME280;69840;53.040;8.600;2023-08-06T07:13:37;100624.94;;;18.06;79.47
80511;BME280;69840;53.040;8.600;2023-08-06T07:17:50;100624.03;;;18.12;79.10
80511;BME280;69840;53.040;8.600;2023-08-06T07:22:02;100622.44;;;18.36;79.85
80511;BME280;69840;53.040;8.600;2023-08-06T07:26:16;100628.19;;;18.58;79.04
80511;BME280;69840;53.040;8.600;2023-08-06T07:30:28;100626.63;;;18.75;78.60
80511;BME280;69840;53.040;8.600;2023-08-06T07:34:41;100628.22;;;18.83;77.16
80511;BME280;69840;53.040;8.600;2023-08-06T07:38:54;100626.34;;;18.83;77.29
80511;BME280;69840;53.040;8.600;2023-08-06T07:43:07;100625.91;;;19.05;77.90
80511;BME280;69840;53.040;8.600;2023-08-06T07:47:19;100635.72;;;18.92;76.00
80511;BME280;69840;53.040;8.600;2023-08-06T07:51:32;100638.25;;;19.06;75.83
80511;BME280;69840;53.040;8.600;2023-08-06T07:55:49;100623.69;;;18.58;75.46
80511;BME280;69840;53.040;8.600;2023-08-06T08:00:02;100618.94;;;18.61;75.24
80511;BME280;69840;53.040;8.600;2023-08-06T08:04:24;100628.59;;;18.86;76.24
80511;BME280;69840;53.040;8.600;2023-08-06T08:08:36;100622.84;;;18.83;76.57
80511;BME280;69840;53.040;8.600;2023-08-06T08:12:49;100628.81;;;19.21;75.69
80511;BME280;69840;53.040;8.600;2023-08-06T08:17:02;100625.00;;;19.47;73.24
80511;BME280;69840;53.040;8.600;2023-08-06T08:21:15;100619.03;;;19.45;74.34
80511;BME280;69840;53.040;8.600;2023-08-06T08:25:28;100612.34;;;19.36;74.86
80511;BME280;69840;53.040;8.600;2023-08-06T08:29:42;100611.47;;;19.06;71.84
80511;BME280;69840;53.040;8.600;2023-08-06T08:33:54;100608.06;;;19.17;70.18
80511;BME280;69840;53.040;8.600;2023-08-06T08:38:07;100609.97;;;18.91;74.53
80511;BME280;69840;53.040;8.600;2023-08-06T08:42:20;100600.25;;;18.97;74.97
80511;BME280;69840;53.040;8.600;2023-08-06T08:46:33;100598.22;;;18.92;75.94
80511;BME280;69840;53.040;8.600;2023-08-06T08:50:49;100593.09;;;18.91;74.49
80511;BME280;69840;53.040;8.600;2023-08-06T08:55:02;100592.88;;;18.92;75.40
80511;BME280;69840;53.040;8.600;2023-08-06T08:59:14;100580.22;;;19.18;77.05
80511;BME280;69840;53.040;8.600;2023-08-06T09:03:27;100578.28;;;18.70;76.07
80511;BME280;69840;53.040;8.600;2023-08-06T09:07:43;100573.81;;;18.82;77.11
80511;BME280;69840;53.040;8.600;2023-08-06T09:17:00;100566.63;;;18.83;75.09
80511;BME280;69840;53.040;8.600;2023-08-06T09:21:14;100573.75;;;18.89;75.20
80511;BME280;69840;53.040;8.600;2023-08-06T09:25:27;100570.16;;;19.13;74.63
80511;BME280;69840;53.040;8.600;2023-08-06T09:29:44;100574.25;;;19.16;75.85
80511;BME280;69840;53.040;8.600;2023-08-06T09:33:59;100577.31;;;19.19;77.42
80511;BME280;69840;53.040;8.600;2023-08-06T09:38:12;100581.09;;;19.30;75.32
80511;BME280;69840;53.040;8.600;2023-08-06T09:42:25;100586.53;;;19.23;76.12
80511;BME280;69840;53.040;8.600;2023-08-06T09:46:37;100584.47;;;19.55;74.71
80511;BME280;69840;53.040;8.600;2023-08-06T09:50:50;100579.66;;;19.46;74.31
80511;BME280;69840;53.040;8.600;2023-08-06T09:55:03;100577.41;;;19.61;74.81
80511;BME280;69840;53.040;8.600;2023-08-06T09:59:16;100573.13;;;19.72;71.95
80511;BME280;69840;53.040;8.600;2023-08-06T10:03:33;100580.16;;;19.84;71.89
80511;BME280;69840;53.040;8.600;2023-08-06T10:07:46;100572.63;;;20.05;73.42
80511;BME280;69840;53.040;8.600;2023-08-06T10:11:59;100583.03;;;19.71;70.96
80511;BME280;69840;53.040;8.600;2023-08-06T10:16:12;100578.41;;;19.78;68.11
80511;BME280;69840;53.040;8.600;2023-08-06T10:20:25;100573.19;;;20.07;66.75
80511;BME280;69840;53.040;8.600;2023-08-06T10:29:35;100570.47;;;20.60;67.07
80511;BME280;69840;53.040;8.600;2023-08-06T10:33:48;100572.56;;;20.58;67.07
80511;BME280;69840;53.040;8.600;2023-08-06T10:42:29;100567.31;;;21.15;62.65
80511;BME280;69840;53.040;8.600;2023-08-06T10:46:41;100573.03;;;22.75;59.24
80511;BME280;69840;53.040;8.600;2023-08-06T10:50:55;100561.84;;;22.28;62.47
80511;BME280;69840;53.040;8.600;2023-08-06T10:55:08;100553.63;;;23.17;57.54
80511;BME280;69840;53.040;8.600;2023-08-06T10:59:21;100552.31;;;23.47;59.45
80511;BME280;69840;53.040;8.600;2023-08-06T11:03:37;100541.59;;;23.78;58.12
80511;BME280;69840;53.040;8.600;2023-08-06T11:07:49;100551.19;;;24.23;54.21
80511;BME280;69840;53.040;8.600;2023-08-06T11:12:09;100551.16;;;24.65;56.94
80511;BME280;69840;53.040;8.600;2023-08-06T11:16:22;100541.03;;;24.08;56.73
80511;BME280;69840;53.040;8.600;2023-08-06T11:20:36;100536.13;;;23.68;56.56
80511;BME280;69840;53.040;8.600;2023-08-06T11:24:49;100535.38;;;24.10;59.26
80511;BME280;69840;53.040;8.600;2023-08-06T11:29:02;100538.94;;;25.10;54.70
80511;BME280;69840;53.040;8.600;2023-08-06T11:33:20;100531.22;;;26.15;48.40
80511;BME280;69840;53.040;8.600;2023-08-06T11:37:33;100532.81;;;25.55;50.12
80511;BME280;69840;53.040;8.600;2023-08-06T11:41:47;100537.47;;;24.87;54.84
80511;BME280;69840;53.040;8.600;2023-08-06T11:46:00;100538.00;;;25.67;49.18
80511;BME280;69840;53.040;8.600;2023-08-06T11:50:24;100523.06;;;26.45;43.86
80511;BME280;69840;53.040;8.600;2023-08-06T11:54:37;100519.28;;;25.55;44.66
80511;BME280;69840;53.040;8.600;2023-08-06T11:58:50;100512.84;;;24.83;53.00
80511;BME280;69840;53.040;8.600;2023-08-06T12:03:04;100507.72;;;26.95;44.80
80511;BME280;69840;53.040;8.600;2023-08-06T12:07:17;100499.25;;;26.32;48.01
80511;BME280;69840;53.040;8.600;2023-08-06T12:11:30;100512.47;;;24.60;52.63
80511;BME280;69840;53.040;8.600;2023-08-06T12:15:42;100505.66;;;24.10;50.93
80511;BME280;69840;53.040;8.600;2023-08-06T12:19:55;100500.50;;;24.03;55.76
80511;BME280;69840;53.040;8.600;2023-08-06T12:24:08;100501.56;;;24.02;57.44
80511;BME280;69840;53.040;8.600;2023-08-06T12:28:20;100499.75;;;24.55;55.89
80511;BME280;69840;53.040;8.600;2023-08-06T12:32:35;100496.91;;;24.30;56.70
80511;BME280;69840;53.040;8.600;2023-08-06T12:36:47;100502.94;;;25.04;54.30
80511;BME280;69840;53.040;8.600;2023-08-06T12:41:00;100494.34;;;26.39;50.08
80511;BME280;69840;53.040;8.600;2023-08-06T12:45:13;100502.94;;;29.18;43.69
80511;BME280;69840;53.040;8.600;2023-08-06T12:49:25;100497.84;;;26.45;50.06
80511;BME280;69840;53.040;8.600;2023-08-06T12:53:38;100494.44;;;25.63;47.66
80511;BME280;69840;53.040;8.600;2023-08-06T12:57:50;100491.00;;;29.52;44.32
80511;BME280;69840;53.040;8.600;2023-08-06T13:02:09;100493.56;;;29.62;40.85
80511;BME280;69840;53.040;8.600;2023-08-06T13:06:21;100496.81;;;29.45;43.33
80511;BME280;69840;53.040;8.600;2023-08-06T13:10:34;100492.34;;;27.98;45.73
80511;BME280;69840;53.040;8.600;2023-08-06T13:14:46;100488.66;;;28.41;44.38
80511;BME280;69840;53.040;8.600;2023-08-06T13:18:59;100489.53;;;28.08;43.46
80511;BME280;69840;53.040;8.600;2023-08-06T13:23:12;100488.53;;;27.99;45.94
80511;BME280;69840;53.040;8.600;2023-08-06T13:27:24;100488.00;;;27.23;43.68
80511;BME280;69840;53.040;8.600;2023-08-06T13:31:37;100474.97;;;27.70;44.71
80511;BME280;69840;53.040;8.600;2023-08-06T13:35:50;100481.84;;;28.15;42.44
80511;BME280;69840;53.040;8.600;2023-08-06T13:40:03;100479.69;;;28.41;41.26
80511;BME280;69840;53.040;8.600;2023-08-06T13:44:16;100478.69;;;28.03;40.97
80511;BME280;69840;53.040;8.600;2023-08-06T13:48:29;100475.34;;;27.53;41.67
80511;BME280;69840;53.040;8.600;2023-08-06T13:52:41;100476.53;;;26.87;41.68
80511;BME280;69840;53.040;8.600;2023-08-06T13:56:54;100485.44;;;26.93;41.73
80511;BME280;69840;53.040;8.600;2023-08-06T14:01:10;100473.69;;;27.13;43.32
80511;BME280;69840;53.040;8.600;2023-08-06T14:05:23;100481.84;;;26.48;42.07
80511;BME280;69840;53.040;8.600;2023-08-06T14:09:35;100491.97;;;26.12;42.57
80511;BME280;69840;53.040;8.600;2023-08-06T14:13:48;100497.34;;;26.33;41.86
80511;BME280;69840;53.040;8.600;2023-08-06T14:18:01;100493.78;;;26.47;42.63
80511;BME280;69840;53.040;8.600;2023-08-06T14:22:14;100495.69;;;25.25;45.19
80511;BME280;69840;53.040;8.600;2023-08-06T14:26:26;100490.06;;;25.67;46.79
80511;BME280;69840;53.040;8.600;2023-08-06T14:30:39;100491.44;;;25.85;43.99
80511;BME280;69840;53.040;8.600;2023-08-06T14:34:51;100490.84;;;26.13;42.14
80511;BME280;69840;53.040;8.600;2023-08-06T14:39:04;100490.88;;;26.29;46.42
80511;BME280;69840;53.040;8.600;2023-08-06T14:43:17;100494.31;;;26.49;46.58
80511;BME280;69840;53.040;8.600;2023-08-06T14:47:29;100491.81;;;26.68;46.07
80511;BME280;69840;53.040;8.600;2023-08-06T14:51:42;100492.22;;;26.06;47.67
80511;BME280;69840;53.040;8.600;2023-08-06T14:55:54;100497.84;;;27.58;43.07
80511;BME280;69840;53.040;8.600;2023-08-06T15:00:07;100499.78;;;26.19;46.00
80511;BME280;69840;53.040;8.600;2023-08-06T15:04:20;100492.22;;;25.45;47.91
80511;BME280;69840;53.040;8.600;2023-08-06T15:08:33;100498.47;;;25.76;45.34
80511;BME280;69840;53.040;8.600;2023-08-06T15:12:46;100503.94;;;26.81;46.81
80511;BME280;69840;53.040;8.600;2023-08-06T15:16:58;100515.22;;;26.18;45.79
80511;BME280;69840;53.040;8.600;2023-08-06T15:21:11;100520.69;;;25.78;45.51
80511;BME280;69840;53.040;8.600;2023-08-06T15:25:24;100533.41;;;25.98;45.41
80511;BME280;69840;53.040;8.600;2023-08-06T15:29:36;100528.47;;;25.54;47.99
80511;BME280;69840;53.040;8.600;2023-08-06T15:33:49;100540.13;;;25.49;47.64
80511;BME280;69840;53.040;8.600;2023-08-06T15:38:01;100540.44;;;24.91;48.90
80511;BME280;69840;53.040;8.600;2023-08-06T15:42:14;100542.88;;;25.75;46.99
80511;BME280;69840;53.040;8.600;2023-08-06T15:46:26;100543.16;;;24.86;47.61
80511;BME280;69840;53.040;8.600;2023-08-06T15:50:39;100550.69;;;24.31;48.25
80511;BME280;69840;53.040;8.600;2023-08-06T15:54:53;100547.13;;;24.68;48.97
80511;BME280;69840;53.040;8.600;2023-08-06T16:03:34;100552.78;;;23.12;52.06
80511;BME280;69840;53.040;8.600;2023-08-06T16:07:49;100561.31;;;22.65;54.21
80511;BME280;69840;53.040;8.600;2023-08-06T16:12:02;100553.53;;;22.30;54.48
80511;BME280;69840;53.040;8.600;2023-08-06T16:16:15;100556.31;;;22.18;56.68
80511;BME280;69840;53.040;8.600;2023-08-06T16:20:27;100559.66;;;22.09;56.07
80511;BME280;69840;53.040;8.600;2023-08-06T16:24:40;100555.31;;;22.41;56.82
80511;BME280;69840;53.040;8.600;2023-08-06T16:28:53;100568.09;;;21.84;59.35
80511;BME280;69840;53.040;8.600;2023-08-06T16:33:05;100576.78;;;21.74;60.33
80511;BME280;69840;53.040;8.600;2023-08-06T16:37:18;100576.31;;;21.77;59.22
80511;BME280;69840;53.040;8.600;2023-08-06T16:41:30;100573.06;;;21.47;58.97
80511;BME280;69840;53.040;8.600;2023-08-06T16:45:43;100574.53;;;21.26;59.85
80511;BME280;69840;53.040;8.600;2023-08-06T16:49:55;100578.78;;;21.10;61.31
80511;BME280;69840;53.040;8.600;2023-08-06T16:54:08;100582.84;;;21.13;62.33
80511;BME280;69840;53.040;8.600;2023-08-06T16:58:20;100584.19;;;20.98;61.83
80511;BME280;69840;53.040;8.600;2023-08-06T17:02:33;100592.56;;;21.14;62.24
80511;BME280;69840;53.040;8.600;2023-08-06T17:06:46;100592.16;;;20.93;61.91
80511;BME280;69840;53.040;8.600;2023-08-06T17:10:58;100594.19;;;21.15;62.60
80511;BME280;69840;53.040;8.600;2023-08-06T17:15:11;100593.31;;;20.86;63.47
80511;BME280;69840;53.040;8.600;2023-08-06T17:19:23;100599.03;;;20.89;64.73
80511;BME280;69840;53.040;8.600;2023-08-06T17:23:35;100596.38;;;20.66;64.05
80511;BME280;69840;53.040;8.600;2023-08-06T17:27:48;100608.47;;;20.33;66.22
80511;BME280;69840;53.040;8.600;2023-08-06T17:32:01;100605.03;;;20.45;66.95
80511;BME280;69840;53.040;8.600;2023-08-06T17:36:13;100605.00;;;20.68;64.79
80511;BME280;69840;53.040;8.600;2023-08-06T17:40:26;100610.84;;;20.42;65.41
80511;BME280;69840;53.040;8.600;2023-08-06T17:44:39;100613.59;;;20.35;65.94
80511;BME280;69840;53.040;8.600;2023-08-06T17:48:52;100616.09;;;20.48;67.37
80511;BME280;69840;53.040;8.600;2023-08-06T17:53:04;100625.69;;;20.44;67.30
80511;BME280;69840;53.040;8.600;2023-08-06T17:57:17;100623.88;;;20.26;68.54
80511;BME280;69840;53.040;8.600;2023-08-06T18:01:29;100624.47;;;20.28;68.74
80511;BME280;69840;53.040;8.600;2023-08-06T18:05:42;100631.41;;;20.06;69.64
80511;BME280;69840;53.040;8.600;2023-08-06T18:09:54;100633.31;;;19.76;69.73
80511;BME280;69840;53.040;8.600;2023-08-06T18:14:07;100625.25;;;19.76;70.45
80511;BME280;69840;53.040;8.600;2023-08-06T18:18:19;100636.06;;;19.69;70.71
80511;BME280;69840;53.040;8.600;2023-08-06T18:22:32;100634.56;;;19.73;70.18
80511;BME280;69840;53.040;8.600;2023-08-06T18:26:44;100628.03;;;19.69;69.34
80511;BME280;69840;53.040;8.600;2023-08-06T18:30:57;100647.66;;;19.51;70.54
80511;BME280;69840;53.040;8.600;2023-08-06T18:35:09;100652.56;;;19.18;70.34
80511;BME280;69840;53.040;8.600;2023-08-06T18:39:22;100656.50;;;19.15;71.43
80511;BME280;69840;53.040;8.600;2023-08-06T18:43:35;100653.88;;;19.09;71.89
80511;BME280;69840;53.040;8.600;2023-08-06T18:47:47;100664.75;;;18.96;72.42
80511;BME280;69840;53.040;8.600;2023-08-06T18:52:00;100669.41;;;18.82;71.06
80511;BME280;69840;53.040;8.600;2023-08-06T18:56:12;100660.34;;;18.83;71.30
80511;BME280;69840;53.040;8.600;2023-08-06T19:00:25;100663.06;;;18.76;72.24
80511;BME280;69840;53.040;8.600;2023-08-06T19:04:38;100676.16;;;18.66;73.45
80511;BME280;69840;53.040;8.600;2023-08-06T19:08:50;100676.06;;;18.48;73.47
80511;BME280;69840;53.040;8.600;2023-08-06T19:13:07;100682.22;;;18.23;74.42
80511;BME280;69840;53.040;8.600;2023-08-06T19:17:21;100689.72;;;18.08;74.33
80511;BME280;69840;53.040;8.600;2023-08-06T19:21:34;100692.41;;;18.08;74.55
80511;BME280;69840;53.040;8.600;2023-08-06T19:25:46;100691.91;;;17.86;75.69
80511;BME280;69840;53.040;8.600;2023-08-06T19:29:59;100702.19;;;17.83;75.11
80511;BME280;69840;53.040;8.600;2023-08-06T19:34:12;100694.03;;;17.65;74.44
80511;BME280;69840;53.040;8.600;2023-08-06T19:38:24;100703.94;;;17.58;75.24
80511;BME280;69840;53.040;8.600;2023-08-06T19:42:37;100705.78;;;17.50;75.20
80511;BME280;69840;53.040;8.600;2023-08-06T19:46:49;100697.84;;;17.31;76.04
80511;BME280;69840;53.040;8.600;2023-08-06T19:51:02;100705.47;;;17.21;77.11
80511;BME280;69840;53.040;8.600;2023-08-06T19:55:14;100704.59;;;17.33;76.67
80511;BME280;69840;53.040;8.600;2023-08-06T19:59:27;100700.09;;;17.34;76.93
80511;BME280;69840;53.040;8.600;2023-08-06T20:03:39;100694.13;;;17.38;76.95
80511;BME280;69840;53.040;8.600;2023-08-06T20:07:52;100692.06;;;17.34;77.57
80511;BME280;69840;53.040;8.600;2023-08-06T20:12:05;100699.88;;;17.35;77.26
80511;BME280;69840;53.040;8.600;2023-08-06T20:16:18;100694.94;;;17.39;77.12
80511;BME280;69840;53.040;8.600;2023-08-06T20:20:34;100695.97;;;17.38;77.47
80511;BME280;69840;53.040;8.600;2023-08-06T20:24:47;100689.19;;;17.35;77.83
80511;BME280;69840;53.040;8.600;2023-08-06T20:28:59;100688.38;;;17.35;77.72
80511;BME280;69840;53.040;8.600;2023-08-06T20:33:12;100696.59;;;17.33;77.43
80511;BME280;69840;53.040;8.600;2023-08-06T20:37:24;100696.19;;;17.36;77.19
80511;BME280;69840;53.040;8.600;2023-08-06T20:41:37;100698.44;;;17.39;77.38
80511;BME280;69840;53.040;8.600;2023-08-06T20:45:58;100703.56;;;17.41;76.82
80511;BME280;69840;53.040;8.600;2023-08-06T20:50:11;100706.25;;;17.34;77.02
80511;BME280;69840;53.040;8.600;2023-08-06T20:54:23;100710.59;;;17.29;77.87
80511;BME280;69840;53.040;8.600;2023-08-06T20:58:36;100710.59;;;17.22;78.08
80511;BME280;69840;53.040;8.600;2023-08-06T21:02:48;100706.09;;;17.16;77.99
80511;BME280;69840;53.040;8.600;2023-08-06T21:07:01;100707.53;;;17.18;78.04
80511;BME280;69840;53.040;8.600;2023-08-06T21:11:13;100706.91;;;17.16;78.53
80511;BME280;69840;53.040;8.600;2023-08-06T21:15:26;100715.16;;;17.02;79.15
80511;BME280;69840;53.040;8.600;2023-08-06T21:19:38;100722.75;;;17.11;78.90
80511;BME280;69840;53.040;8.600;2023-08-06T21:23:51;100729.53;;;17.14;78.45
80511;BME280;69840;53.040;8.600;2023-08-06T21:28:03;100727.06;;;17.06;78.73
80511;BME280;69840;53.040;8.600;2023-08-06T21:32:16;100730.56;;;17.06;79.13
80511;BME280;69840;53.040;8.600;2023-08-06T21:36:28;100730.34;;;17.08;79.08
80511;BME280;69840;53.040;8.600;2023-08-06T21:40:41;100730.16;;;17.09;79.27
80511;BME280;69840;53.040;8.600;2023-08-06T21:44:53;100733.66;;;17.10;79.56
80511;BME280;69840;53.040;8.600;2023-08-06T21:49:06;100738.56;;;17.06;79.09
80511;BME280;69840;53.040;8.600;2023-08-06T21:53:18;100735.88;;;17.19;79.25
80511;BME280;69840;53.040;8.600;2023-08-06T21:57:31;100740.59;;;17.24;79.49
80511;BME280;69840;53.040;8.600;2023-08-06T22:01:43;100738.38;;;17.14;79.56
80511;BME280;69840;53.040;8.600;2023-08-06T22:05:56;100753.34;;;17.02;81.96
80511;BME280;69840;53.040;8.600;2023-08-06T22:10:09;100748.22;;;17.01;84.48
80511;BME280;69840;53.040;8.600;2023-08-06T22:14:21;100754.41;;;16.95;85.29
80511;BME280;69840;53.040;8.600;2023-08-06T22:18:35;100758.50;;;16.71;86.92
80511;BME280;69840;53.040;8.600;2023-08-06T22:22:47;100752.91;;;16.53;88.10
80511;BME280;69840;53.040;8.600;2023-08-06T22:27:00;100758.22;;;16.39;88.09
80511;BME280;69840;53.040;8.600;2023-08-06T22:31:12;100760.69;;;16.41;88.63